sensor_id;sensor_type;location;lat;lon;timestamp;P1;durP1;ratioP1;P2;durP2;ratioP2
8861;SDS011;4799;50.996;4.754;2023-04-03T00:01:36;8.20;;;7.40;;
8861;SDS011;4799;50.996;4.754;2023-04-03T00:04:03;8.27;;;7.47;;
8861;SDS011;4799;50.996;4.754;2023-04-03T00:06:30;8.57;;;7.60;;
8861;SDS011;4799;50.996;4.754;2023-04-03T00:08:56;8.87;;;7.70;;
8861;SDS011;4799;50.996;4.754;2023-04-03T00:11:22;8.47;;;7.73;;
8861;SDS011;4799;50.996;4.754;2023-04-03T00:13:48;8.13;;;7.27;;
8861;SDS011;4799;50.996;4.754;2023-04-03T00:16:14;9.40;;;7.47;;
8861;SDS011;4799;50.996;4.754;2023-04-03T00:18:40;7.93;;;7.13;;
8861;SDS011;4799;50.996;4.754;2023-04-03T00:21:06;8.30;;;7.40;;
8861;SDS011;4799;50.996;4.754;2023-04-03T00:23:33;10.90;;;8.03;;
8861;SDS011;4799;50.996;4.754;2023-04-03T00:25:59;8.07;;;7.27;;
8861;SDS011;4799;50.996;4.754;2023-04-03T00:28:24;8.53;;;7.63;;
8861;SDS011;4799;50.996;4.754;2023-04-03T00:30:52;8.30;;;7.43;;
8861;SDS011;4799;50.996;4.754;2023-04-03T00:33:18;8.63;;;7.70;;
8861;SDS011;4799;50.996;4.754;2023-04-03T00:35:46;8.40;;;7.40;;
8861;SDS011;4799;50.996;4.754;2023-04-03T00:38:13;9.07;;;7.73;;
8861;SDS011;4799;50.996;4.754;2023-04-03T00:40:41;8.60;;;7.80;;
8861;SDS011;4799;50.996;4.754;2023-04-03T00:43:17;8.70;;;7.90;;
8861;SDS011;4799;50.996;4.754;2023-04-03T00:45:48;8.83;;;7.90;;
8861;SDS011;4799;50.996;4.754;2023-04-03T00:48:20;8.40;;;7.50;;
8861;SDS011;4799;50.996;4.754;2023-04-03T00:51:07;8.80;;;7.90;;
8861;SDS011;4799;50.996;4.754;2023-04-03T00:53:44;9.43;;;8.30;;
8861;SDS011;4799;50.996;4.754;2023-04-03T00:56:15;9.60;;;8.37;;
8861;SDS011;4799;50.996;4.754;2023-04-03T00:58:48;9.83;;;8.90;;
8861;SDS011;4799;50.996;4.754;2023-04-03T01:01:24;9.10;;;8.20;;
8861;SDS011;4799;50.996;4.754;2023-04-03T01:03:51;9.70;;;8.73;;
8861;SDS011;4799;50.996;4.754;2023-04-03T01:06:20;9.17;;;8.27;;
8861;SDS011;4799;50.996;4.754;2023-04-03T01:08:51;9.73;;;7.87;;
8861;SDS011;4799;50.996;4.754;2023-04-03T01:11:17;9.40;;;8.50;;
8861;SDS011;4799;50.996;4.754;2023-04-03T01:13:43;9.13;;;8.23;;
8861;SDS011;4799;50.996;4.754;2023-04-03T01:16:09;10.03;;;8.97;;
8861;SDS011;4799;50.996;4.754;2023-04-03T01:18:36;9.87;;;8.90;;
8861;SDS011;4799;50.996;4.754;2023-04-03T01:26:35;9.80;;;8.80;;
8861;SDS011;4799;50.996;4.754;2023-04-03T01:29:02;10.40;;;8.50;;
8861;SDS011;4799;50.996;4.754;2023-04-03T01:31:40;9.60;;;8.77;;
8861;SDS011;4799;50.996;4.754;2023-04-03T01:34:14;9.77;;;8.87;;
8861;SDS011;4799;50.996;4.754;2023-04-03T01:36:40;9.43;;;8.53;;
8861;SDS011;4799;50.996;4.754;2023-04-03T01:39:06;9.93;;;9.03;;
8861;SDS011;4799;50.996;4.754;2023-04-03T01:41:32;10.03;;;8.80;;
8861;SDS011;4799;50.996;4.754;2023-04-03T01:43:57;10.20;;;9.03;;
8861;SDS011;4799;50.996;4.754;2023-04-03T01:46:23;9.60;;;8.67;;
8861;SDS011;4799;50.996;4.754;2023-04-03T01:48:49;11.63;;;10.43;;
8861;SDS011;4799;50.996;4.754;2023-04-03T01:51:15;10.93;;;9.83;;
8861;SDS011;4799;50.996;4.754;2023-04-03T01:53:41;10.77;;;9.73;;
8861;SDS011;4799;50.996;4.754;2023-04-03T01:56:07;10.00;;;9.10;;
8861;SDS011;4799;50.996;4.754;2023-04-03T01:58:32;10.13;;;9.23;;
8861;SDS011;4799;50.996;4.754;2023-04-03T02:00:58;9.87;;;8.87;;
8861;SDS011;4799;50.996;4.754;2023-04-03T02:03:24;10.57;;;9.47;;
8861;SDS011;4799;50.996;4.754;2023-04-03T02:05:50;10.83;;;9.70;;
8861;SDS011;4799;50.996;4.754;2023-04-03T02:08:16;10.83;;;9.73;;
8861;SDS011;4799;50.996;4.754;2023-04-03T02:10:48;10.47;;;9.47;;
8861;SDS011;4799;50.996;4.754;2023-04-03T02:13:15;11.03;;;9.90;;
8861;SDS011;4799;50.996;4.754;2023-04-03T02:15:42;11.13;;;10.00;;
8861;SDS011;4799;50.996;4.754;2023-04-03T02:18:07;10.40;;;9.50;;
8861;SDS011;4799;50.996;4.754;2023-04-03T02:20:34;11.47;;;10.27;;
8861;SDS011;4799;50.996;4.754;2023-04-03T02:22:59;11.40;;;10.30;;
8861;SDS011;4799;50.996;4.754;2023-04-03T02:25:25;12.27;;;11.17;;
8861;SDS011;4799;50.996;4.754;2023-04-03T02:27:51;12.10;;;10.87;;
8861;SDS011;4799;50.996;4.754;2023-04-03T02:30:17;12.50;;;11.20;;
8861;SDS011;4799;50.996;4.754;2023-04-03T02:32:43;12.47;;;11.13;;
8861;SDS011;4799;50.996;4.754;2023-04-03T02:35:09;11.13;;;10.13;;
8861;SDS011;4799;50.996;4.754;2023-04-03T02:37:36;12.30;;;11.10;;
8861;SDS011;4799;50.996;4.754;2023-04-03T02:40:02;11.83;;;10.63;;
8861;SDS011;4799;50.996;4.754;2023-04-03T02:42:29;11.83;;;10.83;;
8861;SDS011;4799;50.996;4.754;2023-04-03T02:44:55;11.33;;;10.33;;
8861;SDS011;4799;50.996;4.754;2023-04-03T02:47:21;11.77;;;10.67;;
8861;SDS011;4799;50.996;4.754;2023-04-03T02:49:46;11.03;;;10.13;;
8861;SDS011;4799;50.996;4.754;2023-04-03T02:52:13;11.63;;;10.63;;
8861;SDS011;4799;50.996;4.754;2023-04-03T02:54:39;12.53;;;11.33;;
8861;SDS011;4799;50.996;4.754;2023-04-03T02:57:05;11.60;;;10.50;;
8861;SDS011;4799;50.996;4.754;2023-04-03T02:59:34;11.90;;;10.80;;
8861;SDS011;4799;50.996;4.754;2023-04-03T03:02:01;13.40;;;11.53;;
8861;SDS011;4799;50.996;4.754;2023-04-03T03:04:26;14.40;;;12.90;;
8861;SDS011;4799;50.996;4.754;2023-04-03T03:06:52;13.20;;;11.90;;
8861;SDS011;4799;50.996;4.754;2023-04-03T03:09:18;14.60;;;13.20;;
8861;SDS011;4799;50.996;4.754;2023-04-03T03:11:43;14.83;;;13.33;;
8861;SDS011;4799;50.996;4.754;2023-04-03T03:14:09;13.87;;;12.57;;
8861;SDS011;4799;50.996;4.754;2023-04-03T03:16:35;13.10;;;11.93;;
8861;SDS011;4799;50.996;4.754;2023-04-03T03:19:01;14.10;;;12.70;;
8861;SDS011;4799;50.996;4.754;2023-04-03T03:21:27;17.00;;;15.00;;
8861;SDS011;4799;50.996;4.754;2023-04-03T03:23:53;16.93;;;15.17;;
8861;SDS011;4799;50.996;4.754;2023-04-03T03:26:18;15.73;;;14.10;;
8861;SDS011;4799;50.996;4.754;2023-04-03T03:28:44;17.70;;;15.87;;
8861;SDS011;4799;50.996;4.754;2023-04-03T03:31:10;16.23;;;14.50;;
8861;SDS011;4799;50.996;4.754;2023-04-03T03:33:37;16.77;;;15.17;;
8861;SDS011;4799;50.996;4.754;2023-04-03T03:36:03;17.23;;;15.57;;
8861;SDS011;4799;50.996;4.754;2023-04-03T03:38:29;15.00;;;13.60;;
8861;SDS011;4799;50.996;4.754;2023-04-03T03:40:54;15.87;;;14.27;;
8861;SDS011;4799;50.996;4.754;2023-04-03T03:43:20;15.10;;;13.63;;
8861;SDS011;4799;50.996;4.754;2023-04-03T03:45:49;16.60;;;15.00;;
8861;SDS011;4799;50.996;4.754;2023-04-03T03:48:16;18.03;;;16.37;;
8861;SDS011;4799;50.996;4.754;2023-04-03T03:50:42;16.87;;;15.17;;
8861;SDS011;4799;50.996;4.754;2023-04-03T03:53:07;19.27;;;17.27;;
8861;SDS011;4799;50.996;4.754;2023-04-03T03:55:33;17.60;;;15.80;;
8861;SDS011;4799;50.996;4.754;2023-04-03T03:57:59;18.40;;;16.60;;
8861;SDS011;4799;50.996;4.754;2023-04-03T04:00:26;17.83;;;16.03;;
8861;SDS011;4799;50.996;4.754;2023-04-03T04:02:52;20.10;;;18.20;;
8861;SDS011;4799;50.996;4.754;2023-04-03T04:05:18;19.17;;;17.37;;
8861;SDS011;4799;50.996;4.754;2023-04-03T04:07:43;19.63;;;17.73;;
8861;SDS011;4799;50.996;4.754;2023-04-03T04:10:09;19.63;;;17.80;;
8861;SDS011;4799;50.996;4.754;2023-04-03T04:12:35;20.77;;;18.77;;
8861;SDS011;4799;50.996;4.754;2023-04-03T04:15:01;20.33;;;18.23;;
8861;SDS011;4799;50.996;4.754;2023-04-03T04:17:27;21.47;;;19.27;;
8861;SDS011;4799;50.996;4.754;2023-04-03T04:19:53;22.07;;;19.80;;
8861;SDS011;4799;50.996;4.754;2023-04-03T04:22:19;20.80;;;18.87;;
8861;SDS011;4799;50.996;4.754;2023-04-03T04:24:44;20.10;;;18.20;;
8861;SDS011;4799;50.996;4.754;2023-04-03T04:27:10;21.47;;;19.47;;
8861;SDS011;4799;50.996;4.754;2023-04-03T04:29:36;18.40;;;16.80;;
8861;SDS011;4799;50.996;4.754;2023-04-03T04:32:02;17.73;;;15.93;;
8861;SDS011;4799;50.996;4.754;2023-04-03T04:34:29;22.30;;;19.97;;
8861;SDS011;4799;50.996;4.754;2023-04-03T04:36:55;18.10;;;16.30;;
8861;SDS011;4799;50.996;4.754;2023-04-03T04:39:21;17.27;;;15.57;;
8861;SDS011;4799;50.996;4.754;2023-04-03T04:41:47;18.20;;;16.50;;
8861;SDS011;4799;50.996;4.754;2023-04-03T04:44:12;21.53;;;19.53;;
8861;SDS011;4799;50.996;4.754;2023-04-03T04:46:38;18.70;;;17.00;;
8861;SDS011;4799;50.996;4.754;2023-04-03T04:49:04;19.70;;;17.70;;
8861;SDS011;4799;50.996;4.754;2023-04-03T04:51:30;18.77;;;16.97;;
8861;SDS011;4799;50.996;4.754;2023-04-03T04:53:56;19.20;;;17.17;;
8861;SDS011;4799;50.996;4.754;2023-04-03T04:56:22;17.47;;;15.73;;
8861;SDS011;4799;50.996;4.754;2023-04-03T04:58:47;16.93;;;15.43;;
8861;SDS011;4799;50.996;4.754;2023-04-03T05:01:13;19.80;;;17.70;;
8861;SDS011;4799;50.996;4.754;2023-04-03T05:03:39;18.73;;;16.70;;
8861;SDS011;4799;50.996;4.754;2023-04-03T05:06:05;22.30;;;19.90;;
8861;SDS011;4799;50.996;4.754;2023-04-03T05:08:31;20.67;;;18.67;;
8861;SDS011;4799;50.996;4.754;2023-04-03T05:10:57;20.97;;;18.77;;
8861;SDS011;4799;50.996;4.754;2023-04-03T05:13:22;19.07;;;17.27;;
8861;SDS011;4799;50.996;4.754;2023-04-03T05:15:48;21.03;;;18.83;;
8861;SDS011;4799;50.996;4.754;2023-04-03T05:18:14;19.47;;;17.03;;
8861;SDS011;4799;50.996;4.754;2023-04-03T05:20:40;19.33;;;17.53;;
8861;SDS011;4799;50.996;4.754;2023-04-03T05:23:06;20.77;;;18.57;;
8861;SDS011;4799;50.996;4.754;2023-04-03T05:25:32;20.63;;;18.57;;
8861;SDS011;4799;50.996;4.754;2023-04-03T05:27:57;21.40;;;19.27;;
8861;SDS011;4799;50.996;4.754;2023-04-03T05:30:23;21.83;;;19.60;;
8861;SDS011;4799;50.996;4.754;2023-04-03T05:32:49;21.20;;;19.17;;
8861;SDS011;4799;50.996;4.754;2023-04-03T05:35:15;23.73;;;21.23;;
8861;SDS011;4799;50.996;4.754;2023-04-03T05:37:41;21.07;;;18.90;;
8861;SDS011;4799;50.996;4.754;2023-04-03T05:40:07;22.37;;;20.10;;
8861;SDS011;4799;50.996;4.754;2023-04-03T05:42:33;22.23;;;19.93;;
8861;SDS011;4799;50.996;4.754;2023-04-03T05:44:59;26.77;;;24.07;;
8861;SDS011;4799;50.996;4.754;2023-04-03T05:47:25;28.60;;;25.57;;
8861;SDS011;4799;50.996;4.754;2023-04-03T05:49:51;28.53;;;25.63;;
8861;SDS011;4799;50.996;4.754;2023-04-03T05:52:27;26.87;;;24.27;;
8861;SDS011;4799;50.996;4.754;2023-04-03T05:54:54;27.83;;;25.13;;
8861;SDS011;4799;50.996;4.754;2023-04-03T05:57:21;29.30;;;26.43;;
8861;SDS011;4799;50.996;4.754;2023-04-03T05:59:47;30.10;;;26.93;;
8861;SDS011;4799;50.996;4.754;2023-04-03T06:02:18;28.07;;;25.30;;
8861;SDS011;4799;50.996;4.754;2023-04-03T06:04:45;28.53;;;25.87;;
8861;SDS011;4799;50.996;4.754;2023-04-03T06:07:19;29.80;;;26.73;;
8861;SDS011;4799;50.996;4.754;2023-04-03T06:09:48;29.30;;;26.30;;
8861;SDS011;4799;50.996;4.754;2023-04-03T06:12:16;27.70;;;24.97;;
8861;SDS011;4799;50.996;4.754;2023-04-03T06:14:42;26.07;;;23.43;;
8861;SDS011;4799;50.996;4.754;2023-04-03T06:17:08;27.03;;;24.53;;
8861;SDS011;4799;50.996;4.754;2023-04-03T06:19:34;25.27;;;22.97;;
8861;SDS011;4799;50.996;4.754;2023-04-03T06:22:01;25.97;;;23.47;;
8861;SDS011;4799;50.996;4.754;2023-04-03T06:24:28;25.40;;;23.03;;
8861;SDS011;4799;50.996;4.754;2023-04-03T06:26:54;23.27;;;21.27;;
8861;SDS011;4799;50.996;4.754;2023-04-03T06:29:20;23.83;;;21.63;;
8861;SDS011;4799;50.996;4.754;2023-04-03T06:31:46;21.80;;;19.93;;
8861;SDS011;4799;50.996;4.754;2023-04-03T06:34:12;22.13;;;20.07;;
8861;SDS011;4799;50.996;4.754;2023-04-03T06:36:39;22.30;;;20.10;;
8861;SDS011;4799;50.996;4.754;2023-04-03T06:39:05;20.17;;;18.00;;
8861;SDS011;4799;50.996;4.754;2023-04-03T06:41:32;19.93;;;18.13;;
8861;SDS011;4799;50.996;4.754;2023-04-03T06:43:58;18.20;;;16.57;;
8861;SDS011;4799;50.996;4.754;2023-04-03T06:46:25;18.30;;;16.57;;
8861;SDS011;4799;50.996;4.754;2023-04-03T06:48:51;16.40;;;14.90;;
8861;SDS011;4799;50.996;4.754;2023-04-03T06:51:21;15.73;;;14.30;;
8861;SDS011;4799;50.996;4.754;2023-04-03T06:53:49;15.93;;;14.37;;
8861;SDS011;4799;50.996;4.754;2023-04-03T06:56:16;15.17;;;13.77;;
8861;SDS011;4799;50.996;4.754;2023-04-03T06:58:43;14.10;;;12.77;;
8861;SDS011;4799;50.996;4.754;2023-04-03T07:01:11;14.57;;;13.20;;
8861;SDS011;4799;50.996;4.754;2023-04-03T07:03:38;14.60;;;12.90;;
8861;SDS011;4799;50.996;4.754;2023-04-03T07:06:04;12.77;;;11.57;;
8861;SDS011;4799;50.996;4.754;2023-04-03T07:08:32;12.57;;;11.37;;
8861;SDS011;4799;50.996;4.754;2023-04-03T07:10:58;11.87;;;10.67;;
8861;SDS011;4799;50.996;4.754;2023-04-03T07:13:24;11.13;;;10.03;;
8861;SDS011;4799;50.996;4.754;2023-04-03T07:15:50;11.30;;;9.20;;
8861;SDS011;4799;50.996;4.754;2023-04-03T07:18:16;9.90;;;8.87;;
8861;SDS011;4799;50.996;4.754;2023-04-03T07:20:44;9.83;;;8.87;;
8861;SDS011;4799;50.996;4.754;2023-04-03T07:23:10;11.20;;;8.47;;
8861;SDS011;4799;50.996;4.754;2023-04-03T07:25:36;9.27;;;8.37;;
8861;SDS011;4799;50.996;4.754;2023-04-03T07:28:07;8.67;;;7.87;;
8861;SDS011;4799;50.996;4.754;2023-04-03T07:30:33;8.97;;;8.00;;
8861;SDS011;4799;50.996;4.754;2023-04-03T07:32:59;9.27;;;7.53;;
8861;SDS011;4799;50.996;4.754;2023-04-03T07:35:24;8.73;;;7.10;;
8861;SDS011;4799;50.996;4.754;2023-04-03T07:37:50;10.10;;;7.60;;
8861;SDS011;4799;50.996;4.754;2023-04-03T07:40:16;7.57;;;6.87;;
8861;SDS011;4799;50.996;4.754;2023-04-03T07:42:42;8.40;;;6.97;;
8861;SDS011;4799;50.996;4.754;2023-04-03T07:45:07;7.80;;;6.90;;
8861;SDS011;4799;50.996;4.754;2023-04-03T07:47:34;8.67;;;6.90;;
8861;SDS011;4799;50.996;4.754;2023-04-03T07:50:00;8.47;;;6.83;;
8861;SDS011;4799;50.996;4.754;2023-04-03T07:52:25;7.40;;;6.33;;
8861;SDS011;4799;50.996;4.754;2023-04-03T07:54:51;6.93;;;6.23;;
8861;SDS011;4799;50.996;4.754;2023-04-03T07:57:17;9.13;;;7.37;;
8861;SDS011;4799;50.996;4.754;2023-04-03T07:59:43;8.73;;;6.20;;
8861;SDS011;4799;50.996;4.754;2023-04-03T08:02:09;7.77;;;6.17;;
8861;SDS011;4799;50.996;4.754;2023-04-03T08:04:35;7.07;;;5.60;;
8861;SDS011;4799;50.996;4.754;2023-04-03T08:07:01;7.73;;;6.00;;
8861;SDS011;4799;50.996;4.754;2023-04-03T08:09:27;8.17;;;5.93;;
8861;SDS011;4799;50.996;4.754;2023-04-03T08:11:52;10.23;;;6.07;;
8861;SDS011;4799;50.996;4.754;2023-04-03T08:14:18;7.90;;;6.03;;
8861;SDS011;4799;50.996;4.754;2023-04-03T08:16:45;8.43;;;5.93;;
8861;SDS011;4799;50.996;4.754;2023-04-03T08:19:12;6.53;;;5.80;;
8861;SDS011;4799;50.996;4.754;2023-04-03T08:21:40;9.17;;;5.30;;
8861;SDS011;4799;50.996;4.754;2023-04-03T08:24:09;5.67;;;5.00;;
8861;SDS011;4799;50.996;4.754;2023-04-03T08:26:35;7.10;;;5.27;;
8861;SDS011;4799;50.996;4.754;2023-04-03T08:29:01;6.10;;;4.83;;
8861;SDS011;4799;50.996;4.754;2023-04-03T08:31:27;7.22;;;4.90;;
8861;SDS011;4799;50.996;4.754;2023-04-03T08:33:53;8.17;;;4.83;;
8861;SDS011;4799;50.996;4.754;2023-04-03T08:36:23;6.20;;;4.40;;
8861;SDS011;4799;50.996;4.754;2023-04-03T08:38:51;5.37;;;3.97;;
8861;SDS011;4799;50.996;4.754;2023-04-03T08:41:34;6.00;;;4.43;;
8861;SDS011;4799;50.996;4.754;2023-04-03T08:49:42;5.60;;;3.40;;
8861;SDS011;4799;50.996;4.754;2023-04-03T08:52:35;6.83;;;3.80;;
8861;SDS011;4799;50.996;4.754;2023-04-03T08:55:23;5.80;;;3.57;;
8861;SDS011;4799;50.996;4.754;2023-04-03T08:58:00;4.47;;;3.53;;
8861;SDS011;4799;50.996;4.754;2023-04-03T09:00:37;7.23;;;3.83;;
8861;SDS011;4799;50.996;4.754;2023-04-03T09:03:12;5.43;;;3.57;;
8861;SDS011;4799;50.996;4.754;2023-04-03T09:08:30;8.17;;;3.53;;
8861;SDS011;4799;50.996;4.754;2023-04-03T09:16:43;4.87;;;3.80;;
8861;SDS011;4799;50.996;4.754;2023-04-03T09:19:30;5.13;;;3.80;;
8861;SDS011;4799;50.996;4.754;2023-04-03T09:22:20;5.20;;;3.50;;
8861;SDS011;4799;50.996;4.754;2023-04-03T09:25:10;5.80;;;3.60;;
8861;SDS011;4799;50.996;4.754;2023-04-03T09:27:42;5.53;;;3.53;;
8861;SDS011;4799;50.996;4.754;2023-04-03T09:30:13;6.93;;;3.70;;
8861;SDS011;4799;50.996;4.754;2023-04-03T09:32:43;4.97;;;3.83;;
8861;SDS011;4799;50.996;4.754;2023-04-03T09:35:24;6.77;;;4.10;;
8861;SDS011;4799;50.996;4.754;2023-04-03T09:37:54;5.63;;;3.37;;
8861;SDS011;4799;50.996;4.754;2023-04-03T09:40:40;5.03;;;3.43;;
8861;SDS011;4799;50.996;4.754;2023-04-03T09:45:42;5.87;;;4.47;;
8861;SDS011;4799;50.996;4.754;2023-04-03T09:50:38;5.53;;;3.17;;
8861;SDS011;4799;50.996;4.754;2023-04-03T09:56:03;4.03;;;3.20;;
8861;SDS011;4799;50.996;4.754;2023-04-03T09:58:52;5.20;;;3.20;;
8861;SDS011;4799;50.996;4.754;2023-04-03T10:01:39;4.60;;;2.93;;
8861;SDS011;4799;50.996;4.754;2023-04-03T10:04:14;5.40;;;3.10;;
8861;SDS011;4799;50.996;4.754;2023-04-03T10:09:23;4.37;;;2.60;;
8861;SDS011;4799;50.996;4.754;2023-04-03T10:14:26;6.80;;;3.27;;
8861;SDS011;4799;50.996;4.754;2023-04-03T10:19:31;5.70;;;3.17;;
8861;SDS011;4799;50.996;4.754;2023-04-03T10:44:41;3.00;;;2.10;;
8861;SDS011;4799;50.996;4.754;2023-04-03T10:47:16;5.33;;;2.43;;
8861;SDS011;4799;50.996;4.754;2023-04-03T10:50:00;3.53;;;2.40;;
8861;SDS011;4799;50.996;4.754;2023-04-03T10:57:49;4.53;;;2.33;;
8861;SDS011;4799;50.996;4.754;2023-04-03T11:00:19;8.63;;;2.80;;
8861;SDS011;4799;50.996;4.754;2023-04-03T11:03:00;3.97;;;2.30;;
8861;SDS011;4799;50.996;4.754;2023-04-03T11:05:35;3.97;;;2.10;;
8861;SDS011;4799;50.996;4.754;2023-04-03T11:08:27;4.00;;;2.00;;
8861;SDS011;4799;50.996;4.754;2023-04-03T11:11:06;4.22;;;2.30;;
8861;SDS011;4799;50.996;4.754;2023-04-03T11:13:43;4.50;;;2.17;;
8861;SDS011;4799;50.996;4.754;2023-04-03T11:16:20;3.63;;;2.10;;
8861;SDS011;4799;50.996;4.754;2023-04-03T11:19:02;3.90;;;2.43;;
8861;SDS011;4799;50.996;4.754;2023-04-03T11:21:56;4.13;;;2.27;;
8861;SDS011;4799;50.996;4.754;2023-04-03T11:24:27;3.73;;;2.47;;
8861;SDS011;4799;50.996;4.754;2023-04-03T11:26:56;4.00;;;2.10;;
8861;SDS011;4799;50.996;4.754;2023-04-03T11:29:25;2.83;;;1.80;;
8861;SDS011;4799;50.996;4.754;2023-04-03T11:34:34;3.53;;;2.00;;
8861;SDS011;4799;50.996;4.754;2023-04-03T11:39:46;3.33;;;1.77;;
8861;SDS011;4799;50.996;4.754;2023-04-03T11:42:29;3.63;;;1.67;;
8861;SDS011;4799;50.996;4.754;2023-04-03T11:47:47;2.13;;;1.53;;
8861;SDS011;4799;50.996;4.754;2023-04-03T12:06:41;2.53;;;1.70;;
8861;SDS011;4799;50.996;4.754;2023-04-03T12:13:36;3.42;;;1.85;;
8861;SDS011;4799;50.996;4.754;2023-04-03T12:16:03;3.93;;;2.00;;
8861;SDS011;4799;50.996;4.754;2023-04-03T12:18:41;2.07;;;1.40;;
8861;SDS011;4799;50.996;4.754;2023-04-03T12:21:17;3.23;;;1.77;;
8861;SDS011;4799;50.996;4.754;2023-04-03T12:26:32;2.70;;;1.80;;
8861;SDS011;4799;50.996;4.754;2023-04-03T12:28:58;3.30;;;1.80;;
8861;SDS011;4799;50.996;4.754;2023-04-03T12:43:09;2.53;;;1.77;;
8861;SDS011;4799;50.996;4.754;2023-04-03T12:45:52;3.20;;;1.80;;
8861;SDS011;4799;50.996;4.754;2023-04-03T12:48:25;3.07;;;1.87;;
8861;SDS011;4799;50.996;4.754;2023-04-03T12:50:53;3.33;;;1.80;;
8861;SDS011;4799;50.996;4.754;2023-04-03T12:53:23;3.20;;;2.00;;
8861;SDS011;4799;50.996;4.754;2023-04-03T12:55:55;2.50;;;1.73;;
8861;SDS011;4799;50.996;4.754;2023-04-03T12:58:23;3.17;;;1.90;;
8861;SDS011;4799;50.996;4.754;2023-04-03T13:01:25;3.30;;;2.00;;
8861;SDS011;4799;50.996;4.754;2023-04-03T13:03:49;3.03;;;1.90;;
8861;SDS011;4799;50.996;4.754;2023-04-03T13:06:18;3.07;;;1.97;;
8861;SDS011;4799;50.996;4.754;2023-04-03T13:11:22;2.30;;;1.90;;
8861;SDS011;4799;50.996;4.754;2023-04-03T13:13:57;3.00;;;1.80;;
8861;SDS011;4799;50.996;4.754;2023-04-03T13:16:24;5.67;;;2.00;;
8861;SDS011;4799;50.996;4.754;2023-04-03T13:18:54;2.90;;;1.70;;
8861;SDS011;4799;50.996;4.754;2023-04-03T13:23:59;4.50;;;2.13;;
8861;SDS011;4799;50.996;4.754;2023-04-03T13:26:31;3.53;;;1.60;;
8861;SDS011;4799;50.996;4.754;2023-04-03T13:29:03;2.60;;;1.60;;
8861;SDS011;4799;50.996;4.754;2023-04-03T13:31:35;3.30;;;1.80;;
8861;SDS011;4799;50.996;4.754;2023-04-03T13:34:06;5.73;;;1.70;;
8861;SDS011;4799;50.996;4.754;2023-04-03T13:36:37;4.10;;;1.80;;
8861;SDS011;4799;50.996;4.754;2023-04-03T13:41:44;2.60;;;1.70;;
8861;SDS011;4799;50.996;4.754;2023-04-03T13:46:47;3.40;;;1.83;;
8861;SDS011;4799;50.996;4.754;2023-04-03T13:51:43;3.20;;;1.80;;
8861;SDS011;4799;50.996;4.754;2023-04-03T13:54:18;2.13;;;1.67;;
8861;SDS011;4799;50.996;4.754;2023-04-03T13:56:52;3.10;;;1.70;;
8861;SDS011;4799;50.996;4.754;2023-04-03T13:59:24;4.40;;;1.90;;
8861;SDS011;4799;50.996;4.754;2023-04-03T14:04:28;2.60;;;1.70;;
8861;SDS011;4799;50.996;4.754;2023-04-03T14:06:54;2.87;;;1.60;;
8861;SDS011;4799;50.996;4.754;2023-04-03T14:09:21;2.17;;;1.60;;
8861;SDS011;4799;50.996;4.754;2023-04-03T14:11:48;3.03;;;1.70;;
8861;SDS011;4799;50.996;4.754;2023-04-03T14:14:21;3.10;;;1.60;;
8861;SDS011;4799;50.996;4.754;2023-04-03T14:16:53;3.77;;;1.60;;
8861;SDS011;4799;50.996;4.754;2023-04-03T14:21:55;2.77;;;1.53;;
8861;SDS011;4799;50.996;4.754;2023-04-03T14:24:22;3.63;;;1.73;;
8861;SDS011;4799;50.996;4.754;2023-04-03T14:26:49;2.67;;;1.60;;
8861;SDS011;4799;50.996;4.754;2023-04-03T14:29:17;2.20;;;1.60;;
8861;SDS011;4799;50.996;4.754;2023-04-03T14:31:43;3.20;;;1.70;;
8861;SDS011;4799;50.996;4.754;2023-04-03T14:34:11;2.70;;;1.40;;
8861;SDS011;4799;50.996;4.754;2023-04-03T14:36:38;2.00;;;1.50;;
8861;SDS011;4799;50.996;4.754;2023-04-03T14:39:06;2.30;;;1.40;;
8861;SDS011;4799;50.996;4.754;2023-04-03T14:41:33;3.40;;;1.60;;
8861;SDS011;4799;50.996;4.754;2023-04-03T14:43:59;2.20;;;1.50;;
8861;SDS011;4799;50.996;4.754;2023-04-03T14:46:26;2.30;;;1.53;;
8861;SDS011;4799;50.996;4.754;2023-04-03T14:48:55;3.03;;;1.53;;
8861;SDS011;4799;50.996;4.754;2023-04-03T14:51:21;2.50;;;1.60;;
8861;SDS011;4799;50.996;4.754;2023-04-03T14:53:47;3.50;;;1.60;;
8861;SDS011;4799;50.996;4.754;2023-04-03T14:56:16;2.40;;;1.60;;
8861;SDS011;4799;50.996;4.754;2023-04-03T14:58:56;2.70;;;1.73;;
8861;SDS011;4799;50.996;4.754;2023-04-03T15:01:24;2.43;;;1.63;;
8861;SDS011;4799;50.996;4.754;2023-04-03T15:03:51;3.40;;;1.70;;
8861;SDS011;4799;50.996;4.754;2023-04-03T15:06:16;4.17;;;1.63;;
8861;SDS011;4799;50.996;4.754;2023-04-03T15:08:43;2.33;;;1.67;;
8861;SDS011;4799;50.996;4.754;2023-04-03T15:11:10;3.03;;;1.57;;
8861;SDS011;4799;50.996;4.754;2023-04-03T15:13:37;2.50;;;1.73;;
8861;SDS011;4799;50.996;4.754;2023-04-03T15:16:04;2.50;;;1.60;;
8861;SDS011;4799;50.996;4.754;2023-04-03T15:18:39;2.63;;;1.60;;
8861;SDS011;4799;50.996;4.754;2023-04-03T15:21:05;2.20;;;1.80;;
8861;SDS011;4799;50.996;4.754;2023-04-03T15:23:31;2.57;;;1.60;;
8861;SDS011;4799;50.996;4.754;2023-04-03T15:25:57;3.70;;;1.90;;
8861;SDS011;4799;50.996;4.754;2023-04-03T15:28:25;4.03;;;1.77;;
8861;SDS011;4799;50.996;4.754;2023-04-03T15:30:53;2.40;;;1.70;;
8861;SDS011;4799;50.996;4.754;2023-04-03T15:33:19;2.27;;;1.63;;
8861;SDS011;4799;50.996;4.754;2023-04-03T15:35:45;3.60;;;1.70;;
8861;SDS011;4799;50.996;4.754;2023-04-03T15:38:10;2.57;;;1.50;;
8861;SDS011;4799;50.996;4.754;2023-04-03T15:40:37;2.63;;;1.73;;
8861;SDS011;4799;50.996;4.754;2023-04-03T15:43:04;2.53;;;1.70;;
8861;SDS011;4799;50.996;4.754;2023-04-03T15:45:31;2.53;;;1.80;;
8861;SDS011;4799;50.996;4.754;2023-04-03T15:47:58;3.50;;;2.00;;
8861;SDS011;4799;50.996;4.754;2023-04-03T15:50:24;2.77;;;1.70;;
8861;SDS011;4799;50.996;4.754;2023-04-03T15:52:50;2.20;;;1.70;;
8861;SDS011;4799;50.996;4.754;2023-04-03T15:55:23;3.33;;;2.00;;
8861;SDS011;4799;50.996;4.754;2023-04-03T15:57:50;3.13;;;2.10;;
8861;SDS011;4799;50.996;4.754;2023-04-03T16:00:17;2.77;;;1.80;;
8861;SDS011;4799;50.996;4.754;2023-04-03T16:02:43;2.33;;;1.83;;
8861;SDS011;4799;50.996;4.754;2023-04-03T16:05:12;2.60;;;1.87;;
8861;SDS011;4799;50.996;4.754;2023-04-03T16:07:38;3.90;;;1.80;;
8861;SDS011;4799;50.996;4.754;2023-04-03T16:10:06;3.90;;;1.80;;
8861;SDS011;4799;50.996;4.754;2023-04-03T16:12:32;2.47;;;1.90;;
8861;SDS011;4799;50.996;4.754;2023-04-03T16:14:58;3.80;;;1.73;;
8861;SDS011;4799;50.996;4.754;2023-04-03T16:17:25;4.80;;;2.17;;
8861;SDS011;4799;50.996;4.754;2023-04-03T16:19:52;3.60;;;1.93;;
8861;SDS011;4799;50.996;4.754;2023-04-03T16:22:19;2.47;;;1.83;;
8861;SDS011;4799;50.996;4.754;2023-04-03T16:24:45;2.93;;;1.80;;
8861;SDS011;4799;50.996;4.754;2023-04-03T16:27:11;4.77;;;3.13;;
8861;SDS011;4799;50.996;4.754;2023-04-03T16:29:37;6.07;;;3.27;;
8861;SDS011;4799;50.996;4.754;2023-04-03T16:32:03;4.50;;;2.70;;
8861;SDS011;4799;50.996;4.754;2023-04-03T16:34:29;3.63;;;2.50;;
8861;SDS011;4799;50.996;4.754;2023-04-03T16:36:58;3.43;;;2.23;;
8861;SDS011;4799;50.996;4.754;2023-04-03T16:39:23;4.33;;;2.17;;
8861;SDS011;4799;50.996;4.754;2023-04-03T16:41:49;3.77;;;1.93;;
8861;SDS011;4799;50.996;4.754;2023-04-03T16:44:15;3.67;;;2.00;;
8861;SDS011;4799;50.996;4.754;2023-04-03T16:46:41;4.00;;;2.30;;
8861;SDS011;4799;50.996;4.754;2023-04-03T16:49:07;3.20;;;1.93;;
8861;SDS011;4799;50.996;4.754;2023-04-03T16:51:32;3.73;;;2.03;;
8861;SDS011;4799;50.996;4.754;2023-04-03T16:53:58;2.57;;;1.70;;
8861;SDS011;4799;50.996;4.754;2023-04-03T16:56:24;4.40;;;2.27;;
8861;SDS011;4799;50.996;4.754;2023-04-03T16:58:52;3.63;;;2.10;;
8861;SDS011;4799;50.996;4.754;2023-04-03T17:01:19;3.00;;;2.00;;
8861;SDS011;4799;50.996;4.754;2023-04-03T17:03:46;2.93;;;2.30;;
8861;SDS011;4799;50.996;4.754;2023-04-03T17:06:16;3.33;;;2.10;;
8861;SDS011;4799;50.996;4.754;2023-04-03T17:08:44;2.67;;;1.70;;
8861;SDS011;4799;50.996;4.754;2023-04-03T17:11:11;3.00;;;2.00;;
8861;SDS011;4799;50.996;4.754;2023-04-03T17:13:37;3.00;;;1.93;;
8861;SDS011;4799;50.996;4.754;2023-04-03T17:16:03;2.60;;;1.90;;
8861;SDS011;4799;50.996;4.754;2023-04-03T17:18:31;2.90;;;1.80;;